createdAt,value
2019-05-12T00:01:18.967Z,99.90
2019-05-12T00:03:48.709Z,99.90
2019-05-12T00:06:18.136Z,99.90
2019-05-12T00:09:13.785Z,99.90
2019-05-12T00:12:03.513Z,99.90
2019-05-12T00:14:33.273Z,99.90
2019-05-12T00:17:24.568Z,99.90
2019-05-12T00:19:38.117Z,99.90
2019-05-12T00:22:10.955Z,99.90
2019-05-12T00:24:59.860Z,99.90
2019-05-12T00:27:48.878Z,99.90
2019-05-12T00:33:11.943Z,99.90
2019-05-12T00:35:41.384Z,99.90
2019-05-12T00:38:10.721Z,99.90
2019-05-12T00:40:59.247Z,99.90
2019-05-12T00:44:09.028Z,99.90
2019-05-12T00:50:03.044Z,99.90
2019-05-12T00:53:11.170Z,99.90
2019-05-12T00:56:00.275Z,99.90
2019-05-12T00:58:29.801Z,99.90
2019-05-12T01:01:30.486Z,99.90
2019-05-12T01:03:49.720Z,99.90
2019-05-12T01:06:38.478Z,99.90
2019-05-12T01:09:19.489Z,99.90
2019-05-12T01:11:48.979Z,99.90
2019-05-12T01:17:34.414Z,99.90
2019-05-12T01:20:22.908Z,99.90
2019-05-12T01:23:25.180Z,99.90
2019-05-12T01:28:54.542Z,99.90
2019-05-12T01:34:33.437Z,99.90
2019-05-12T01:37:27.792Z,99.90
2019-05-12T01:40:39.536Z,99.90
2019-05-12T01:46:38.321Z,99.90
2019-05-12T01:49:11.613Z,99.90
2019-05-12T01:52:00.341Z,99.90
2019-05-12T01:57:51.810Z,99.90
2019-05-12T02:00:35.218Z,99.90
2019-05-12T02:03:17.829Z,99.90
2019-05-12T02:06:00.547Z,99.90
2019-05-12T02:08:38.351Z,99.90
2019-05-12T02:11:28.729Z,99.90
2019-05-12T02:14:54.866Z,99.90
2019-05-12T02:17:44.317Z,99.90
2019-05-12T02:20:33.323Z,99.90
2019-05-12T02:23:22.169Z,99.90
2019-05-12T02:29:33.787Z,99.90
2019-05-12T02:35:30.516Z,99.90
2019-05-12T02:44:30.520Z,99.90
2019-05-12T02:47:11.698Z,99.90
2019-05-12T02:52:35.185Z,99.90
2019-05-12T02:55:16.276Z,99.90
2019-05-12T02:57:57.910Z,99.90
2019-05-12T03:06:27.704Z,99.90
2019-05-12T03:09:26.808Z,99.90
2019-05-12T03:12:00.651Z,99.90
2019-05-12T03:17:49.685Z,99.90
2019-05-12T03:23:37.117Z,99.90
2019-05-12T03:32:17.348Z,99.90
2019-05-12T03:35:50.846Z,99.90
2019-05-12T03:39:09.871Z,99.90
2019-05-12T03:44:45.382Z,99.90
2019-05-12T03:50:46.283Z,99.90
2019-05-12T04:00:24.681Z,99.90
2019-05-12T04:03:15.254Z,99.90
2019-05-12T04:06:24.459Z,99.90
2019-05-12T04:09:16.056Z,99.90
2019-05-12T04:12:38.339Z,99.90
2019-05-12T04:15:27.764Z,99.90
2019-05-12T04:18:47.636Z,99.90
2019-05-12T04:21:40.086Z,99.90
2019-05-12T04:24:35.858Z,99.90
2019-05-12T04:32:37.240Z,99.90
2019-05-12T04:36:05.605Z,99.90
2019-05-12T04:39:15.048Z,99.90
2019-05-12T04:42:27.125Z,99.90
2019-05-12T04:45:34.858Z,99.90
2019-05-12T04:51:24.944Z,99.90
2019-05-12T04:54:01.320Z,99.90
2019-05-12T04:57:14.888Z,99.90
2019-05-12T05:00:15.964Z,99.90
2019-05-12T05:03:26.779Z,99.90
2019-05-12T05:06:05.856Z,99.90
2019-05-12T05:08:56.646Z,99.90
2019-05-12T05:12:07.053Z,99.90
2019-05-12T05:15:10.694Z,99.90
2019-05-12T05:18:01.465Z,99.90
2019-05-12T05:21:08.645Z,99.90
2019-05-12T05:23:39.214Z,99.90
2019-05-12T05:29:23.899Z,99.90
2019-05-12T05:31:55.115Z,99.90
2019-05-12T05:34:53.731Z,99.90
2019-05-12T05:37:55.460Z,99.90
2019-05-12T05:40:44.751Z,99.90
2019-05-12T05:43:34.260Z,99.90
2019-05-12T05:52:17.472Z,99.90
2019-05-12T05:55:14.630Z,99.90
2019-05-12T05:58:40.167Z,99.90
2019-05-12T06:08:45.444Z,99.90
2019-05-12T06:11:43.606Z,99.90
2019-05-12T06:21:24.135Z,99.90
2019-05-12T06:27:24.334Z,99.90
2019-05-12T06:30:20.972Z,99.90
2019-05-12T06:33:10.174Z,99.90
2019-05-12T06:36:02.845Z,99.90
2019-05-12T06:42:14.486Z,99.90
2019-05-12T06:44:58.309Z,99.90
2019-05-12T06:55:58.899Z,99.90
2019-05-12T06:58:49.539Z,99.90
2019-05-12T07:25:14.869Z,99.90
2019-05-12T07:28:00.775Z,99.90
2019-05-12T07:30:44.069Z,99.90
2019-05-12T07:33:25.640Z,99.90
2019-05-12T07:36:08.650Z,99.90
2019-05-12T07:38:55.904Z,99.90
2019-05-12T07:41:42.483Z,99.90
2019-05-12T08:04:56.404Z,99.90
2019-05-12T08:07:37.919Z,99.90
2019-05-12T08:10:20.131Z,99.90
2019-05-12T08:13:01.352Z,99.90
2019-05-12T08:15:48.914Z,99.90
2019-05-12T08:18:30.695Z,99.90
2019-05-12T08:21:14.140Z,99.90
2019-05-12T08:23:56.176Z,99.90
2019-05-12T08:26:38.222Z,99.90
2019-05-12T08:29:24.058Z,99.90
2019-05-12T08:37:44.147Z,99.90
2019-05-12T08:40:25.074Z,99.90
2019-05-12T08:43:11.362Z,99.90
2019-05-12T08:48:34.712Z,99.90
2019-05-12T08:51:14.429Z,99.90
2019-05-12T08:57:05.289Z,99.90
2019-05-12T09:00:02.539Z,99.90
2019-05-12T09:02:46.094Z,99.90
2019-05-12T09:05:38.547Z,99.90
2019-05-12T09:08:49.400Z,99.90
2019-05-12T09:11:37.028Z,99.90
2019-05-12T09:17:03.981Z,99.90
2019-05-12T09:19:54.971Z,96.50
2019-05-12T09:22:43.250Z,98.30
2019-05-12T09:25:14.304Z,95.90
2019-05-12T09:27:47.978Z,99.90
2019-05-12T09:30:14.261Z,99.90
2019-05-12T09:32:48.097Z,99.90
2019-05-12T09:35:14.501Z,98.60
2019-05-12T09:37:44.187Z,98.40
2019-05-12T09:40:14.957Z,96.90
2019-05-12T09:42:44.152Z,96.20
2019-05-12T09:45:13.774Z,96.90
2019-05-12T09:47:43.677Z,96.80
2019-05-12T09:50:18.366Z,95.80
2019-05-12T09:52:44.215Z,96.10
2019-05-12T09:55:14.795Z,95.70
2019-05-12T09:57:45.073Z,93.70
2019-05-12T10:00:16.272Z,94.90
2019-05-12T10:02:45.176Z,95.30
2019-05-12T10:05:14.839Z,94.00
2019-05-12T10:07:44.520Z,92.70
2019-05-12T10:10:14.146Z,92.60
2019-05-12T10:12:48.620Z,92.60
2019-05-12T10:15:18.603Z,91.60
2019-05-12T10:17:44.963Z,93.50
2019-05-12T10:20:14.192Z,93.40
2019-05-12T10:22:43.807Z,93.10
2019-05-12T10:25:14.638Z,92.80
2019-05-12T10:27:44.329Z,93.50
2019-05-12T10:30:17.343Z,92.40
2019-05-12T10:32:44.814Z,91.70
2019-05-12T10:35:20.950Z,91.20
2019-05-12T10:37:47.310Z,90.70
2019-05-12T10:40:15.975Z,90.70
2019-05-12T10:42:46.096Z,91.70
2019-05-12T10:45:20.361Z,91.70
2019-05-12T10:47:47.578Z,90.70
2019-05-12T10:50:17.492Z,91.10
2019-05-12T10:52:46.331Z,90.50
2019-05-12T10:55:15.507Z,88.90
2019-05-12T10:57:47.241Z,90.50
2019-05-12T11:00:19.823Z,90.70
2019-05-12T11:02:46.323Z,91.60
2019-05-12T11:05:21.395Z,92.00
2019-05-12T11:07:45.942Z,91.90
2019-05-12T11:10:20.137Z,91.40
2019-05-12T11:12:47.516Z,91.50
2019-05-12T11:15:17.012Z,90.30
2019-05-12T11:18:04.001Z,90.50
2019-05-12T11:23:03.685Z,93.90
2019-05-12T11:25:34.036Z,93.30
2019-05-12T11:28:03.891Z,82.10
2019-05-12T11:30:34.582Z,81.70
2019-05-12T11:33:04.536Z,80.50
2019-05-12T11:35:33.968Z,81.20
2019-05-12T11:38:04.472Z,80.30
2019-05-12T11:40:34.828Z,80.90
2019-05-12T11:43:04.671Z,81.20
2019-05-12T11:45:33.979Z,80.90
2019-05-12T11:48:10.119Z,81.50
2019-05-12T11:50:34.107Z,79.50
2019-05-12T11:53:04.170Z,79.80
2019-05-12T11:55:34.898Z,79.30
2019-05-12T11:58:08.446Z,80.70
2019-05-12T12:00:36.802Z,81.70
2019-05-12T12:03:12.515Z,79.80
2019-05-12T12:05:38.266Z,78.80
2019-05-12T12:08:06.855Z,78.90
2019-05-12T12:10:39.664Z,78.80
2019-05-12T12:13:06.393Z,84.10
2019-05-12T12:15:35.285Z,77.30
2019-05-12T12:18:13.113Z,78.00
2019-05-12T12:20:35.100Z,75.50
2019-05-12T12:23:11.074Z,72.80
2019-05-12T12:25:34.686Z,73.20
2019-05-12T12:28:04.525Z,73.70
2019-05-12T12:30:34.107Z,74.90
2019-05-12T12:33:04.090Z,73.60
2019-05-12T12:35:34.567Z,78.80
2019-05-12T12:38:04.062Z,83.80
2019-05-12T12:40:33.181Z,82.40
2019-05-12T12:43:03.838Z,82.20
2019-05-12T12:45:48.191Z,81.50
2019-05-12T12:48:19.198Z,81.70
2019-05-12T12:50:47.741Z,67.80
2019-05-12T12:53:16.575Z,67.30
2019-05-12T12:55:45.461Z,67.60
2019-05-12T12:58:14.469Z,67.20
2019-05-12T13:00:49.639Z,67.10
2019-05-12T13:03:14.475Z,67.90
2019-05-12T13:05:43.964Z,78.60
2019-05-12T13:08:12.983Z,76.20
2019-05-12T13:10:47.229Z,73.90
2019-05-12T13:13:14.238Z,73.70
2019-05-12T13:15:44.425Z,72.80
2019-05-12T13:18:17.884Z,73.60
2019-05-12T13:20:44.165Z,72.90
2019-05-12T14:50:38.549Z,79.20
2019-05-12T14:58:09.349Z,78.70
2019-05-12T15:00:35.449Z,79.50
2019-05-12T15:03:10.410Z,78.10
2019-05-12T15:05:35.138Z,77.70
2019-05-12T15:08:04.502Z,77.50
2019-05-12T15:10:33.902Z,75.20
2019-05-12T15:13:03.511Z,75.90
2019-05-12T15:15:33.575Z,74.90
2019-05-12T15:18:08.107Z,74.10
2019-05-12T15:20:33.413Z,65.10
2019-05-12T15:23:03.787Z,64.80
2019-05-12T15:25:35.519Z,65.00
2019-05-12T15:28:04.020Z,64.20
2019-05-12T15:30:33.784Z,64.40
2019-05-12T15:33:04.495Z,64.50
2019-05-12T15:35:34.411Z,64.70
2019-05-12T15:38:03.922Z,64.40
2019-05-12T15:40:32.939Z,63.40
2019-05-12T15:43:05.322Z,65.20
2019-05-12T15:45:34.317Z,64.90
2019-05-12T15:48:04.118Z,65.70
2019-05-12T15:50:34.181Z,66.20
2019-05-12T15:53:03.895Z,65.10
2019-05-12T15:55:34.581Z,65.70
2019-05-12T15:58:05.663Z,64.20
2019-05-12T16:00:34.448Z,64.90
2019-05-12T16:03:03.414Z,63.50
2019-05-12T16:05:33.861Z,63.60
2019-05-12T16:08:03.585Z,64.70
2019-05-12T16:10:32.654Z,64.60
2019-05-12T16:13:01.528Z,63.30
2019-05-12T16:15:30.508Z,64.70
2019-05-12T16:18:04.969Z,64.70
2019-05-12T16:20:29.949Z,65.40
2019-05-12T16:22:58.884Z,64.90
2019-05-12T16:25:30.600Z,64.10
2019-05-12T16:27:58.346Z,64.80
2019-05-12T16:30:27.318Z,65.60
2019-05-12T16:32:56.348Z,66.00
2019-05-12T16:35:26.692Z,65.00
2019-05-12T16:37:55.673Z,64.30
2019-05-12T16:40:24.714Z,64.70
2019-05-12T16:42:59.585Z,63.00
2019-05-12T16:45:24.267Z,62.20
2019-05-12T16:47:53.612Z,60.90
2019-05-12T16:50:25.481Z,58.90
2019-05-12T16:52:53.635Z,58.40
2019-05-12T16:55:24.149Z,58.00
2019-05-12T16:57:56.077Z,57.20
2019-05-12T17:00:24.513Z,58.30
2019-05-12T17:02:57.753Z,57.30
2019-05-12T17:05:24.233Z,50.30
2019-05-12T17:07:55.727Z,50.60
2019-05-12T17:10:24.419Z,48.90
2019-05-12T17:12:54.345Z,48.40
2019-05-12T17:15:23.652Z,48.30
2019-05-12T17:17:59.232Z,48.00
2019-05-12T17:20:23.263Z,47.90
2019-05-12T17:22:54.870Z,49.80
2019-05-12T17:25:23.853Z,56.30
2019-05-12T17:27:53.121Z,55.60
2019-05-12T17:30:23.911Z,55.20
2019-05-12T17:33:00.660Z,55.90
2019-05-12T17:35:26.956Z,56.40
2019-05-12T17:37:54.156Z,56.90
2019-05-12T17:40:24.295Z,57.70
2019-05-12T17:42:57.555Z,58.30
2019-05-12T17:45:24.023Z,58.90
2019-05-12T17:47:56.895Z,49.80
2019-05-12T17:50:24.240Z,51.80
2019-05-12T17:52:56.877Z,52.80
2019-05-12T17:55:23.855Z,54.00
2019-05-12T17:57:56.306Z,55.10
2019-05-12T18:00:24.504Z,56.00
2019-05-12T18:02:54.861Z,56.90
2019-05-12T18:05:24.009Z,58.60
2019-05-12T18:07:55.310Z,61.20
2019-05-12T18:10:23.900Z,60.10
2019-05-12T18:12:53.410Z,60.70
2019-05-12T18:15:32.412Z,62.10
2019-05-12T18:17:53.422Z,64.70
2019-05-12T18:20:23.815Z,65.70
2019-05-12T18:22:53.571Z,67.50
2019-05-12T18:25:30.609Z,69.00
2019-05-12T18:27:54.289Z,72.70
2019-05-12T18:30:23.927Z,74.00
2019-05-12T18:33:04.155Z,75.50
2019-05-12T18:35:23.662Z,75.20
2019-05-12T18:37:54.163Z,74.00
2019-05-12T18:40:24.467Z,73.60
2019-05-12T18:42:54.113Z,72.20
2019-05-12T18:45:23.909Z,72.80
2019-05-12T18:47:53.847Z,71.10
2019-05-12T18:50:27.268Z,72.50
2019-05-12T18:52:53.548Z,71.20
2019-05-12T18:55:23.562Z,73.80
2019-05-12T18:57:54.563Z,71.60
2019-05-12T19:00:25.118Z,71.80
2019-05-12T19:02:54.625Z,72.70
2019-05-12T19:05:30.379Z,69.30
2019-05-12T19:07:54.461Z,72.70
2019-05-12T19:10:24.144Z,72.00
2019-05-12T19:13:01.188Z,71.40
2019-05-12T19:15:23.964Z,68.30
2019-05-12T19:17:54.231Z,61.40
2019-05-12T19:20:24.070Z,60.10
2019-05-12T19:22:59.276Z,61.00
2019-05-12T19:25:23.972Z,59.70
2019-05-12T19:28:02.242Z,61.70
2019-05-12T19:30:25.162Z,59.20
2019-05-12T19:32:54.742Z,58.00
2019-05-12T19:35:24.066Z,57.60
2019-05-12T19:37:53.795Z,57.80
2019-05-12T19:40:23.388Z,57.20
2019-05-12T19:42:55.375Z,58.70
2019-05-12T19:45:24.999Z,57.40
2019-05-12T19:47:53.709Z,56.70
2019-05-12T19:50:22.671Z,56.80
2019-05-12T19:52:53.413Z,56.60
2019-05-12T19:55:24.041Z,56.70
2019-05-12T19:57:54.484Z,56.80
2019-05-12T20:00:23.739Z,56.20
2019-05-12T20:02:53.765Z,56.70
2019-05-12T20:05:23.761Z,56.50
2019-05-12T20:07:53.725Z,56.50
2019-05-12T20:10:36.097Z,56.70
2019-05-12T20:13:00.887Z,73.40
2019-05-12T20:15:30.266Z,76.70
2019-05-12T20:18:00.353Z,78.80
2019-05-12T20:20:36.700Z,81.90
2019-05-12T20:47:54.140Z,71.80
2019-05-12T20:50:31.973Z,70.40
2019-05-12T20:52:58.817Z,69.50
2019-05-12T20:55:24.923Z,59.20
2019-05-12T20:57:56.668Z,59.50
2019-05-12T21:00:24.547Z,59.50
2019-05-12T21:02:54.029Z,59.70
2019-05-12T21:05:23.753Z,59.70
2019-05-12T21:07:55.871Z,60.00
2019-05-12T21:10:26.487Z,60.40
2019-05-12T21:12:54.405Z,60.80
2019-05-12T21:15:29.358Z,61.10
2019-05-12T21:18:02.591Z,61.50
2019-05-12T21:20:24.897Z,61.90
2019-05-12T21:22:53.933Z,62.00
2019-05-12T21:25:23.422Z,62.40
2019-05-12T21:27:55.749Z,62.30
2019-05-12T21:30:47.942Z,62.40
2019-05-12T21:33:39.907Z,62.90
2019-05-12T21:36:24.710Z,63.10
2019-05-12T21:39:13.990Z,63.60
2019-05-12T21:42:05.044Z,63.80
2019-05-12T21:44:55.602Z,64.60
2019-05-12T21:47:44.435Z,64.60
2019-05-12T21:50:38.062Z,65.10
2019-05-12T21:53:24.081Z,66.90
2019-05-12T21:56:05.704Z,67.30
2019-05-12T21:58:53.725Z,66.30
2019-05-12T22:01:35.168Z,68.20
2019-05-12T22:04:14.321Z,68.50
2019-05-12T22:06:57.118Z,68.50
2019-05-12T22:09:41.543Z,69.40
2019-05-12T22:15:03.735Z,70.30
2019-05-12T22:20:52.262Z,71.50
2019-05-12T22:23:29.880Z,71.60
2019-05-12T22:26:10.559Z,72.30
2019-05-12T22:28:53.564Z,72.80
2019-05-12T22:31:38.751Z,73.50
2019-05-12T22:40:17.095Z,73.90
2019-05-12T22:42:50.703Z,75.40
2019-05-12T22:45:20.909Z,76.10
2019-05-12T22:48:11.841Z,76.60
2019-05-12T22:50:40.722Z,77.30
2019-05-12T22:53:09.623Z,85.70
2019-05-12T22:55:38.519Z,93.70
2019-05-12T22:58:10.809Z,94.20
2019-05-12T23:00:38.127Z,94.90
2019-05-12T23:03:11.592Z,95.20
2019-05-12T23:05:37.694Z,96.40
2019-05-12T23:08:08.466Z,97.00
2019-05-12T23:13:07.624Z,99.90
2019-05-12T23:15:38.733Z,99.90
2019-05-12T23:18:07.316Z,99.90
2019-05-12T23:20:36.152Z,99.90
2019-05-12T23:23:08.981Z,99.90
2019-05-12T23:25:35.569Z,99.90
2019-05-12T23:28:08.415Z,99.90
2019-05-12T23:30:48.550Z,99.90
2019-05-12T23:33:14.427Z,99.90
2019-05-12T23:35:44.327Z,99.60
2019-05-12T23:38:16.749Z,99.20
2019-05-12T23:40:43.996Z,97.90
2019-05-12T23:43:14.498Z,97.30
2019-05-12T23:45:44.429Z,96.80
2019-05-12T23:48:14.284Z,96.20
2019-05-12T23:50:43.859Z,95.80
2019-05-12T23:53:13.967Z,95.50
2019-05-12T23:55:43.828Z,95.60
2019-05-12T23:58:14.470Z,95.70
